createdAt,value
2019-05-07T00:00:41.214Z,19.4
2019-05-07T00:01:53.261Z,19.5
2019-05-07T00:03:05.458Z,18.9
2019-05-07T00:04:17.541Z,21.8
2019-05-07T00:05:29.830Z,20.3
2019-05-07T00:06:41.970Z,20
2019-05-07T00:07:54.220Z,19.7
2019-05-07T00:09:06.551Z,21
2019-05-07T00:10:18.605Z,18.8
2019-05-07T00:11:30.856Z,18.7
2019-05-07T00:12:43.014Z,19.5
2019-05-07T00:13:55.175Z,21
2019-05-07T00:15:07.351Z,19.2
2019-05-07T00:16:19.534Z,19.6
2019-05-07T00:17:32.414Z,20.7
2019-05-07T00:18:44.059Z,22.3
2019-05-07T00:19:56.161Z,23
2019-05-07T00:21:08.442Z,21.4
2019-05-07T00:22:22.113Z,21.1
2019-05-07T00:23:32.642Z,23.3
2019-05-07T00:24:44.932Z,18.7
2019-05-07T00:25:58.775Z,21.9
2019-05-07T00:27:09.425Z,18.4
2019-05-07T00:28:21.493Z,21.9
2019-05-07T00:29:33.847Z,21.7
2019-05-07T00:30:45.800Z,19.2
2019-05-07T00:31:58.093Z,20.2
2019-05-07T00:33:10.305Z,19.2
2019-05-07T00:34:22.465Z,20.9
2019-05-07T00:35:34.582Z,19.7
2019-05-07T00:36:46.889Z,22.1
2019-05-07T00:37:59.076Z,21.9
2019-05-07T00:39:11.341Z,23.5
2019-05-07T00:40:23.434Z,21.3
2019-05-07T00:41:39.306Z,22.7
2019-05-07T00:42:47.749Z,22.7
2019-05-07T00:44:00.116Z,21.4
2019-05-07T00:45:12.260Z,21.1
2019-05-07T00:46:24.502Z,22.4
2019-05-07T00:47:36.625Z,21
2019-05-07T00:48:48.816Z,21.7
2019-05-07T00:50:01.094Z,22.2
2019-05-07T00:51:13.205Z,21.8
2019-05-07T00:52:25.331Z,22.2
2019-05-07T00:53:37.907Z,20.6
2019-05-07T00:54:49.681Z,21.6
2019-05-07T00:56:02.198Z,20.8
2019-05-07T00:57:14.164Z,24.2
2019-05-07T00:58:26.380Z,24.9
2019-05-07T00:59:38.487Z,20.1
2019-05-07T01:00:50.800Z,23.4
2019-05-07T01:02:03.020Z,23.4
2019-05-07T01:03:15.191Z,22.2
2019-05-07T01:04:27.263Z,21.4
2019-05-07T01:05:39.589Z,23.1
2019-05-07T01:06:51.788Z,23.3
2019-05-07T01:08:03.910Z,20.2
2019-05-07T01:09:21.093Z,24.4
2019-05-07T01:10:28.416Z,22.4
2019-05-07T01:11:40.418Z,22.5
2019-05-07T01:12:52.831Z,23.6
2019-05-07T01:14:04.885Z,23.9
2019-05-07T01:15:17.093Z,26.3
2019-05-07T01:16:29.215Z,23.9
2019-05-07T01:17:41.524Z,24.7
2019-05-07T01:18:53.595Z,24.8
2019-05-07T01:20:05.854Z,24.8
2019-05-07T01:21:18.175Z,21.4
2019-05-07T01:22:30.219Z,19.8
2019-05-07T01:23:42.647Z,21.7
2019-05-07T01:24:54.981Z,22.7
2019-05-07T01:26:10.163Z,23.8
2019-05-07T01:27:19.171Z,25.7
2019-05-07T01:28:31.378Z,23.7
2019-05-07T01:29:43.394Z,27
2019-05-07T01:30:55.494Z,24.5
2019-05-07T01:32:09.224Z,24.6
2019-05-07T01:33:22.270Z,23.3
2019-05-07T01:34:32.374Z,26.4
2019-05-07T01:35:44.315Z,24.4
2019-05-07T01:36:56.645Z,25.1
2019-05-07T01:38:08.828Z,24.6
2019-05-07T01:39:21.024Z,24.3
2019-05-07T01:40:33.047Z,23.1
2019-05-07T01:41:45.527Z,24.6
2019-05-07T01:42:57.438Z,26.4
2019-05-07T01:44:09.720Z,22.5
2019-05-07T01:45:21.937Z,23.3
2019-05-07T01:46:34.080Z,22.6
2019-05-07T01:47:46.243Z,21.5
2019-05-07T01:48:58.652Z,25.2
2019-05-07T01:50:10.780Z,20.6
2019-05-07T01:51:22.971Z,24
2019-05-07T01:52:35.081Z,24.7
2019-05-07T01:53:47.269Z,22.9
2019-05-07T01:54:59.371Z,23.2
2019-05-07T01:56:11.697Z,23.2
2019-05-07T01:57:23.902Z,24.5
2019-05-07T01:58:36.051Z,24.9
2019-05-07T01:59:48.247Z,25.5
2019-05-07T02:01:00.491Z,22.8
2019-05-07T02:02:12.678Z,22
2019-05-07T02:03:24.888Z,24.6
2019-05-07T02:04:39.111Z,25.5
2019-05-07T02:05:49.341Z,27.1
2019-05-07T02:07:01.328Z,22.5
2019-05-07T02:08:17.293Z,25.2
2019-05-07T02:09:25.870Z,22.3
2019-05-07T02:10:38.141Z,25.4
2019-05-07T02:11:50.203Z,23.4
2019-05-07T02:13:02.806Z,27.5
2019-05-07T02:14:14.587Z,26.4
2019-05-07T02:15:26.951Z,26.5
2019-05-07T02:16:38.870Z,22.9
2019-05-07T02:17:51.260Z,25.6
2019-05-07T02:19:03.265Z,24.9
2019-05-07T02:20:15.547Z,27.4
2019-05-07T02:21:27.766Z,23.5
2019-05-07T02:22:40.108Z,22.9
2019-05-07T02:23:52.123Z,25.8
2019-05-07T02:25:04.402Z,27.6
2019-05-07T02:26:19.510Z,22.2
2019-05-07T02:27:28.711Z,25.2
2019-05-07T02:28:40.928Z,23.7
2019-05-07T02:29:53.313Z,26.8
2019-05-07T02:31:05.211Z,27.4
2019-05-07T02:32:17.576Z,27.3
2019-05-07T02:33:29.731Z,26
2019-05-07T02:34:41.833Z,25.1
2019-05-07T02:35:54.064Z,24.8
2019-05-07T02:37:06.258Z,23.9
2019-05-07T02:38:18.503Z,25.2
2019-05-07T02:39:30.651Z,26.1
2019-05-07T02:40:42.852Z,24.3
2019-05-07T02:41:55.045Z,28
2019-05-07T02:43:07.248Z,24.3
2019-05-07T02:44:19.528Z,26.7
2019-05-07T02:45:31.611Z,27.7
2019-05-07T02:46:43.888Z,23.9
2019-05-07T02:47:55.987Z,26.8
2019-05-07T02:49:08.488Z,24
2019-05-07T02:50:20.364Z,27
2019-05-07T02:51:32.551Z,28.5
2019-05-07T02:52:44.703Z,26.3
2019-05-07T02:53:57.135Z,24.8
2019-05-07T02:55:09.153Z,25.1
2019-05-07T02:56:25.893Z,27
2019-05-07T02:57:33.758Z,24.6
2019-05-07T02:58:45.711Z,24.2
2019-05-07T02:59:57.946Z,24.9
2019-05-07T03:01:10.171Z,25.4
2019-05-07T03:02:22.359Z,25.9
2019-05-07T03:03:34.510Z,24.4
2019-05-07T03:04:46.801Z,24.4
2019-05-07T03:05:58.906Z,22.9
2019-05-07T03:07:10.999Z,26.5
2019-05-07T03:08:23.302Z,26.5
2019-05-07T03:09:35.603Z,24.8
2019-05-07T03:10:47.698Z,25.2
2019-05-07T03:11:59.775Z,23.6
2019-05-07T03:13:12.293Z,24.7
2019-05-07T03:14:24.533Z,27.4
2019-05-07T03:15:36.608Z,26.6
2019-05-07T03:16:48.569Z,26.2
2019-05-07T03:18:00.868Z,26.9
2019-05-07T03:19:13.006Z,25.8
2019-05-07T03:20:25.212Z,31.4
2019-05-07T03:21:37.453Z,26.9
2019-05-07T03:22:49.649Z,25.3
2019-05-07T03:24:01.847Z,24.1
2019-05-07T03:25:13.973Z,26.7
2019-05-07T03:26:29.643Z,22.7
2019-05-07T03:27:42.187Z,27.2
2019-05-07T03:28:50.516Z,22
2019-05-07T03:30:02.752Z,25.8
2019-05-07T03:31:14.931Z,25.3
2019-05-07T03:32:27.184Z,24.9
2019-05-07T03:33:39.633Z,27.8
2019-05-07T03:34:51.743Z,25.4
2019-05-07T03:36:03.846Z,25.8
2019-05-07T03:37:16.019Z,25.1
2019-05-07T03:38:28.147Z,23.8
2019-05-07T03:39:40.516Z,24.5
2019-05-07T03:40:52.511Z,22.9
2019-05-07T03:42:05.285Z,26.9
2019-05-07T03:43:21.219Z,27.1
2019-05-07T03:44:31.553Z,27.7
2019-05-07T03:45:41.327Z,26.7
2019-05-07T03:46:53.556Z,27
2019-05-07T03:48:05.659Z,24.1
2019-05-07T03:49:18.040Z,26.7
2019-05-07T03:50:30.082Z,26.3
2019-05-07T03:51:42.328Z,25.8
2019-05-07T03:52:54.420Z,25.9
2019-05-07T03:54:06.811Z,26.6
2019-05-07T03:55:18.791Z,29.7
2019-05-07T03:56:35.673Z,25.4
2019-05-07T03:57:43.266Z,25.8
2019-05-07T03:58:55.461Z,26.9
2019-05-07T04:00:07.583Z,23.3
2019-05-07T04:01:19.858Z,24.7
2019-05-07T04:02:32.033Z,24.5
2019-05-07T04:03:44.298Z,27
2019-05-07T04:04:56.363Z,24.2
2019-05-07T04:06:08.590Z,28.1
2019-05-07T04:07:20.704Z,26.3
2019-05-07T04:08:32.985Z,25.9
2019-05-07T04:09:49.893Z,26.2
2019-05-07T04:10:57.374Z,27.1
2019-05-07T04:12:09.562Z,29.9
2019-05-07T04:13:21.799Z,25.2
2019-05-07T04:14:34.300Z,29.8
2019-05-07T04:15:46.184Z,27.8
2019-05-07T04:16:58.332Z,28.1
2019-05-07T04:18:10.687Z,24.2
2019-05-07T04:19:22.956Z,27.4
2019-05-07T04:20:34.920Z,26.6
2019-05-07T04:21:47.467Z,26.6
2019-05-07T04:22:59.360Z,25.4
2019-05-07T04:24:11.437Z,23.8
2019-05-07T04:25:23.768Z,25.1
2019-05-07T04:26:36.051Z,25.8
2019-05-07T04:27:48.088Z,26.6
2019-05-07T04:29:00.179Z,28
2019-05-07T04:30:12.473Z,27.7
2019-05-07T04:31:24.591Z,26
2019-05-07T04:32:37.908Z,26.5
2019-05-07T04:33:49.167Z,26.2
2019-05-07T04:35:01.441Z,24.4
2019-05-07T04:36:13.441Z,24.8
2019-05-07T04:37:25.783Z,29.9
2019-05-07T04:38:38.067Z,29.1
2019-05-07T04:39:50.112Z,27.9
2019-05-07T04:41:02.179Z,26.2
2019-05-07T04:42:14.586Z,26.6
2019-05-07T04:43:26.518Z,29.9
2019-05-07T04:44:38.948Z,26.6
2019-05-07T04:45:51.112Z,30
2019-05-07T04:47:03.326Z,30
2019-05-07T04:48:15.514Z,29
2019-05-07T04:49:27.662Z,31.5
2019-05-07T04:50:39.748Z,29.5
2019-05-07T04:51:56.854Z,28.7
2019-05-07T04:53:04.724Z,28.8
2019-05-07T04:54:16.445Z,29.3
2019-05-07T04:55:28.483Z,31
2019-05-07T04:56:40.844Z,28.5
2019-05-07T04:57:53.051Z,26.7
2019-05-07T04:59:05.177Z,27.5
2019-05-07T05:00:17.369Z,27.5
2019-05-07T05:01:29.511Z,26.6
2019-05-07T05:02:41.972Z,33
2019-05-07T05:03:53.904Z,28.5
2019-05-07T05:05:06.143Z,29.9
2019-05-07T05:06:18.381Z,25.8
2019-05-07T05:07:30.485Z,27.9
2019-05-07T05:08:42.723Z,28.8
2019-05-07T05:09:54.963Z,29
2019-05-07T05:11:07.033Z,31.3
2019-05-07T05:12:19.261Z,26.9
2019-05-07T05:13:31.494Z,30.7
2019-05-07T05:14:43.817Z,28.9
2019-05-07T05:15:55.845Z,29.2
2019-05-07T05:17:08.014Z,26.5
2019-05-07T05:18:20.351Z,31.8
2019-05-07T05:19:32.496Z,24.9
2019-05-07T05:20:44.634Z,28.8
2019-05-07T05:21:56.806Z,26.7
2019-05-07T05:23:09.091Z,29.5
2019-05-07T05:24:21.203Z,28.8
2019-05-07T05:25:33.641Z,27.4
2019-05-07T05:26:45.761Z,29.5
2019-05-07T05:27:57.817Z,28.3
2019-05-07T05:29:09.900Z,28.9
2019-05-07T05:30:22.087Z,29
2019-05-07T05:31:34.262Z,31
2019-05-07T05:32:46.884Z,30.6
2019-05-07T05:33:58.737Z,28.6
2019-05-07T05:35:10.939Z,25.7
2019-05-07T05:36:23.134Z,28.6
2019-05-07T05:37:35.327Z,30
2019-05-07T05:38:47.515Z,25.3
2019-05-07T05:39:59.843Z,29.5
2019-05-07T05:41:11.864Z,29.6
2019-05-07T05:42:24.756Z,28.1
2019-05-07T05:43:36.369Z,29.2
2019-05-07T05:44:48.666Z,26.3
2019-05-07T05:46:00.785Z,24.7
2019-05-07T05:47:12.895Z,29.4
2019-05-07T05:48:25.116Z,26.5
2019-05-07T05:49:37.173Z,29.7
2019-05-07T05:50:49.417Z,28.5
2019-05-07T05:52:01.683Z,25.9
2019-05-07T05:53:13.851Z,27
2019-05-07T05:54:26.168Z,28.6
2019-05-07T05:55:38.261Z,26.9
2019-05-07T05:56:50.435Z,27
2019-05-07T05:58:02.644Z,27.8
2019-05-07T05:59:14.856Z,29.3
2019-05-07T06:00:27.184Z,26.4
2019-05-07T06:01:39.316Z,27.5
2019-05-07T06:02:51.465Z,29.6
2019-05-07T06:04:03.650Z,26.2
2019-05-07T06:05:15.764Z,25.4
2019-05-07T06:06:28.040Z,28.9
2019-05-07T06:07:40.161Z,31.6
2019-05-07T06:08:52.432Z,27.7
2019-05-07T06:10:04.628Z,29.7
2019-05-07T06:11:16.920Z,28.6
2019-05-07T06:12:29.015Z,29
2019-05-07T06:13:41.278Z,25.2
2019-05-07T06:14:53.323Z,25.9
2019-05-07T06:16:05.588Z,25.4
2019-05-07T06:17:18.578Z,28.3
2019-05-07T06:18:29.979Z,25.4
2019-05-07T06:19:42.092Z,23.9
2019-05-07T06:20:54.356Z,26.9
2019-05-07T06:22:06.779Z,26.9
2019-05-07T06:23:18.761Z,25.7
2019-05-07T06:24:30.877Z,24.9
2019-05-07T06:25:43.856Z,24.5
2019-05-07T06:26:55.239Z,25
2019-05-07T06:28:07.602Z,24
2019-05-07T06:29:19.627Z,22.3
2019-05-07T06:30:31.892Z,21.3
2019-05-07T06:31:44.014Z,23.7
2019-05-07T06:32:56.201Z,23.8
2019-05-07T06:34:08.487Z,22.1
2019-05-07T06:35:21.829Z,20.7
2019-05-07T06:36:32.848Z,23
2019-05-07T06:37:45.053Z,22.9
2019-05-07T06:38:57.189Z,20.1
2019-05-07T06:40:10.472Z,21.7
2019-05-07T06:41:24.064Z,20.6
2019-05-07T06:42:37.230Z,20.7
2019-05-07T06:43:46.018Z,24.5
2019-05-07T06:44:58.725Z,23.6
2019-05-07T06:46:10.446Z,22.2
2019-05-07T06:47:22.663Z,23
2019-05-07T06:48:34.843Z,21.3
2019-05-07T06:49:50.564Z,21.1
2019-05-07T06:50:59.157Z,21.1
2019-05-07T06:52:11.456Z,20.1
2019-05-07T06:53:23.597Z,22.5
2019-05-07T06:54:35.820Z,20.8
2019-05-07T06:55:47.988Z,20.2
2019-05-07T06:57:02.616Z,21.6
2019-05-07T06:58:12.445Z,21.6
2019-05-07T06:59:24.625Z,19.6
2019-05-07T07:00:36.697Z,21
2019-05-07T07:01:49.022Z,18.9
2019-05-07T07:03:01.119Z,18.5
2019-05-07T07:04:13.429Z,19.6
2019-05-07T07:05:25.483Z,18.6
2019-05-07T07:06:37.954Z,19.2
2019-05-07T07:07:49.882Z,19.7
2019-05-07T07:09:02.239Z,20
2019-05-07T07:10:14.484Z,17
2019-05-07T07:11:29.115Z,20
2019-05-07T07:12:42.348Z,16.4
2019-05-07T07:13:50.939Z,20.8
2019-05-07T07:15:03.023Z,19.4
2019-05-07T07:16:15.342Z,18.5
2019-05-07T07:17:27.565Z,20.3
2019-05-07T07:18:39.713Z,20.2
2019-05-07T07:19:53.763Z,18.5
2019-05-07T07:21:08.038Z,21.9
2019-05-07T07:22:16.581Z,20.5
2019-05-07T07:23:28.529Z,22.7
2019-05-07T07:24:40.679Z,20.3
2019-05-07T07:25:56.212Z,20.2
2019-05-07T07:27:05.219Z,20.1
2019-05-07T07:28:17.637Z,19.1
2019-05-07T07:29:29.447Z,20.7
2019-05-07T07:30:42.104Z,20.8
2019-05-07T07:31:54.064Z,20.8
2019-05-07T07:33:06.044Z,19.1
2019-05-07T07:34:18.301Z,19.1
2019-05-07T07:35:30.453Z,19.4
2019-05-07T07:36:42.599Z,19.3
2019-05-07T07:37:54.810Z,20.5
2019-05-07T07:39:06.998Z,18.7
2019-05-07T07:40:19.444Z,20.6
2019-05-07T07:41:31.345Z,17.8
2019-05-07T07:42:44.750Z,18.3
2019-05-07T07:43:56.171Z,20.8
2019-05-07T07:45:07.993Z,21.3
2019-05-07T07:46:23.054Z,21.7
2019-05-07T07:47:32.861Z,23.2
2019-05-07T07:48:44.706Z,22
2019-05-07T07:49:56.800Z,22.8
2019-05-07T07:51:09.013Z,25.2
2019-05-07T07:52:21.178Z,23.5
2019-05-07T07:53:33.319Z,25
2019-05-07T07:54:45.632Z,24.1
2019-05-07T07:56:00.973Z,23.3
2019-05-07T07:57:10.250Z,21.9
2019-05-07T07:58:22.355Z,22.9
2019-05-07T07:59:36.393Z,27.4
2019-05-07T08:00:46.735Z,24.3
2019-05-07T08:01:58.729Z,24.4
2019-05-07T08:03:10.961Z,26.3
2019-05-07T08:04:23.271Z,23.9
2019-05-07T08:05:35.350Z,22.4
2019-05-07T08:06:47.512Z,21.1
2019-05-07T08:07:59.787Z,24.1
2019-05-07T08:09:11.866Z,20.8
2019-05-07T08:10:24.095Z,24.1
2019-05-07T08:11:36.286Z,24.6
2019-05-07T08:12:48.573Z,23.8
2019-05-07T08:14:00.700Z,24.3
2019-05-07T08:15:12.801Z,23.6
2019-05-07T08:16:25.142Z,26.3
2019-05-07T08:17:37.296Z,20.9
2019-05-07T08:18:49.469Z,23.7
2019-05-07T08:20:01.588Z,26.9
2019-05-07T08:21:13.859Z,24.9
2019-05-07T08:22:26.073Z,24.7
2019-05-07T08:23:38.271Z,22.8
2019-05-07T08:24:52.586Z,22
2019-05-07T08:26:05.903Z,26.6
2019-05-07T08:27:14.745Z,24.2
2019-05-07T08:28:27.015Z,23.5
2019-05-07T08:29:39.420Z,26.9
2019-05-07T08:30:51.518Z,24.9
2019-05-07T08:32:03.525Z,25
2019-05-07T08:33:16.032Z,25
2019-05-07T08:34:28.029Z,25.6
2019-05-07T08:35:40.193Z,24.5
2019-05-07T08:36:52.315Z,24.4
2019-05-07T08:38:04.642Z,24.5
2019-05-07T08:39:16.697Z,25.8
2019-05-07T08:40:28.960Z,24.5
2019-05-07T08:41:41.075Z,23.2
2019-05-07T08:42:53.405Z,23
2019-05-07T08:44:05.540Z,23.7
2019-05-07T08:45:17.714Z,25.2
2019-05-07T08:46:29.953Z,23.3
2019-05-07T08:47:42.189Z,22.1
2019-05-07T08:48:54.255Z,21.7
2019-05-07T08:50:06.681Z,21.7
2019-05-07T08:51:18.630Z,24.3
2019-05-07T08:52:31.038Z,24.9
2019-05-07T08:53:43.077Z,22.6
2019-05-07T08:54:55.465Z,23.9
2019-05-07T08:56:10.433Z,21.5
2019-05-07T08:57:20.899Z,21.5
2019-05-07T08:58:31.967Z,23.5
2019-05-07T08:59:44.062Z,20
2019-05-07T09:00:56.282Z,21.8
2019-05-07T09:02:08.545Z,20.2
2019-05-07T09:03:20.588Z,20.3
2019-05-07T09:04:32.868Z,19
2019-05-07T09:05:44.960Z,19.5
2019-05-07T09:06:57.235Z,21.2
2019-05-07T09:08:09.419Z,19.3
2019-05-07T09:09:21.861Z,21
2019-05-07T09:10:33.913Z,19.2
2019-05-07T09:11:46.035Z,21.5
2019-05-07T09:12:58.126Z,18.5
2019-05-07T09:14:10.428Z,19.4
2019-05-07T09:15:22.637Z,18.3
2019-05-07T09:16:34.774Z,17.9
2019-05-07T09:17:46.910Z,17.9
2019-05-07T09:20:11.304Z,19.5
2019-05-07T09:21:23.620Z,17.8
2019-05-07T09:22:35.887Z,20.9
2019-05-07T09:23:48.038Z,18.7
2019-05-07T09:25:00.398Z,17.8
2019-05-07T09:26:16.134Z,19.3
2019-05-07T09:27:24.552Z,17.6
2019-05-07T09:28:36.811Z,17.6
2019-05-07T09:29:48.901Z,18
2019-05-07T09:31:01.162Z,19
2019-05-07T09:32:13.312Z,18.1
2019-05-07T09:33:25.579Z,18.2
2019-05-07T09:34:37.839Z,20.2
2019-05-07T09:35:50.007Z,18.3
2019-05-07T09:37:02.094Z,19.1
2019-05-07T09:38:14.304Z,19.5
2019-05-07T09:39:26.703Z,18.6
2019-05-07T09:40:38.863Z,19.3
2019-05-07T09:41:50.853Z,16.3
2019-05-07T09:43:07.775Z,18.3
2019-05-07T09:44:15.268Z,19.3
2019-05-07T09:45:27.917Z,16.4
2019-05-07T09:46:39.715Z,16.9
2019-05-07T09:47:51.899Z,18.4
2019-05-07T09:49:04.136Z,19
2019-05-07T09:50:16.544Z,19.5
2019-05-07T09:51:28.489Z,21.1
2019-05-07T09:52:40.872Z,21.3
2019-05-07T09:53:52.871Z,18
2019-05-07T09:55:07.014Z,19.2
2019-05-07T09:56:17.227Z,17.7
2019-05-07T09:57:29.603Z,20.4
2019-05-07T09:58:41.787Z,19.4
2019-05-07T09:59:53.979Z,18.4
2019-05-07T10:01:06.001Z,19.5
2019-05-07T10:02:18.302Z,20.2
2019-05-07T10:03:30.334Z,19.9
2019-05-07T10:04:42.670Z,20.5
2019-05-07T10:05:54.710Z,19
2019-05-07T10:07:07.140Z,16.9
2019-05-07T10:08:19.130Z,19.1
2019-05-07T10:09:31.439Z,15.9
2019-05-07T10:10:43.570Z,16
2019-05-07T10:11:55.775Z,20.3
2019-05-07T10:13:07.978Z,19.3
2019-05-07T10:14:20.247Z,20.1
2019-05-07T10:15:32.395Z,23
2019-05-07T10:16:44.650Z,18
2019-05-07T10:17:56.675Z,17.4
2019-05-07T10:19:08.958Z,18.8
2019-05-07T10:20:21.059Z,17
2019-05-07T10:21:33.443Z,16.5
2019-05-07T10:22:45.533Z,17.4
2019-05-07T10:23:57.636Z,16.2
2019-05-07T10:25:09.959Z,16.7
2019-05-07T10:26:27.568Z,17.6
2019-05-07T10:27:34.297Z,17.4
2019-05-07T10:28:46.679Z,17.8
2019-05-07T10:29:58.720Z,15.9
2019-05-07T10:31:11.173Z,18.1
2019-05-07T10:32:23.415Z,15.6
2019-05-07T10:33:35.322Z,16.8
2019-05-07T10:34:47.548Z,17.3
2019-05-07T10:36:00.109Z,19.3
2019-05-07T10:37:11.823Z,16.7
2019-05-07T10:38:24.098Z,16.6
2019-05-07T10:39:36.328Z,15.6
2019-05-07T10:40:48.499Z,16.4
2019-05-07T10:42:00.579Z,17.2
2019-05-07T10:43:12.757Z,13.5
2019-05-07T10:44:24.960Z,14.4
2019-05-07T10:45:37.210Z,15.7
2019-05-07T10:46:49.503Z,14.8
2019-05-07T10:48:01.799Z,17.5
2019-05-07T10:49:13.730Z,16.1
2019-05-07T10:50:26.049Z,16.2
2019-05-07T10:51:38.468Z,13.4
2019-05-07T10:52:50.709Z,16.3
2019-05-07T10:54:02.531Z,15.3
2019-05-07T10:55:15.032Z,14.2
2019-05-07T10:56:40.414Z,15.7
2019-05-07T10:57:43.305Z,16.9
2019-05-07T10:58:51.617Z,16.4
2019-05-07T11:00:03.763Z,14.7
2019-05-07T11:01:16.300Z,17.7
2019-05-07T11:02:28.133Z,15.7
2019-05-07T11:03:40.193Z,13.5
2019-05-07T11:04:52.407Z,16.1
2019-05-07T11:06:04.460Z,14.5
2019-05-07T11:07:16.746Z,12.8
2019-05-07T11:08:28.925Z,13.2
2019-05-07T11:09:41.149Z,14.3
2019-05-07T11:10:53.440Z,14.9
2019-05-07T11:12:05.517Z,16.2
2019-05-07T11:13:17.687Z,16.5
2019-05-07T11:14:29.872Z,14.9
2019-05-07T11:15:42.090Z,16.6
2019-05-07T11:16:54.401Z,16
2019-05-07T11:18:06.524Z,13.9
2019-05-07T11:19:18.985Z,15.2
2019-05-07T11:20:30.905Z,15.7
2019-05-07T11:21:43.180Z,17.7
2019-05-07T11:22:56.467Z,16.9
2019-05-07T11:24:07.632Z,16.3
2019-05-07T11:25:21.864Z,16.5
2019-05-07T11:26:39.725Z,15.4
2019-05-07T11:27:44.080Z,15.8
2019-05-07T11:28:56.749Z,15.2
2019-05-07T11:30:08.376Z,15.4
2019-05-07T11:31:20.700Z,15.5
2019-05-07T11:32:32.790Z,16.1
2019-05-07T11:33:45.221Z,15.7
2019-05-07T11:34:57.232Z,16.8
2019-05-07T11:36:09.465Z,14.8
2019-05-07T11:37:21.760Z,15
2019-05-07T11:38:34.429Z,14.9
2019-05-07T11:39:46.015Z,16.6
2019-05-07T11:40:58.232Z,15.4
2019-05-07T11:42:10.335Z,15.9
2019-05-07T11:43:22.855Z,15
2019-05-07T11:44:34.905Z,17.3
2019-05-07T11:45:47.116Z,16.9
2019-05-07T11:46:59.265Z,16.8
2019-05-07T11:48:11.605Z,18.7
2019-05-07T11:49:23.682Z,16.1
2019-05-07T11:50:35.700Z,15.5
2019-05-07T11:51:47.892Z,15.3
2019-05-07T11:53:00.151Z,14.3
2019-05-07T11:54:12.398Z,16.6
2019-05-07T11:55:24.849Z,16.2
2019-05-07T11:56:38.248Z,18.2
2019-05-07T11:59:01.408Z,18.6
2019-05-07T12:00:13.506Z,15.6
2019-05-07T12:01:25.766Z,16.3
2019-05-07T12:02:37.872Z,20.2
2019-05-07T12:03:50.638Z,18.2
2019-05-07T12:05:02.149Z,18
2019-05-07T12:06:14.451Z,19
2019-05-07T12:07:26.435Z,19.4
2019-05-07T12:08:38.632Z,20.2
2019-05-07T12:09:50.908Z,19.8
2019-05-07T12:11:03.210Z,18
2019-05-07T12:12:15.279Z,17.5
2019-05-07T12:13:27.481Z,17.1
2019-05-07T12:14:39.676Z,16.4
2019-05-07T12:15:52.107Z,15
2019-05-07T12:17:04.206Z,15.3
2019-05-07T12:18:16.175Z,15.5
2019-05-07T12:19:28.487Z,18.1
2019-05-07T12:20:40.566Z,17.1
2019-05-07T12:21:53.017Z,16.4
2019-05-07T12:23:05.045Z,15.6
2019-05-07T12:24:17.283Z,17
2019-05-07T12:25:29.633Z,17.5
2019-05-07T12:26:44.281Z,17.1
2019-05-07T12:27:54.010Z,15.6
2019-05-07T12:29:05.923Z,18.2
2019-05-07T12:30:18.533Z,17.6
2019-05-07T12:31:30.414Z,14.2
2019-05-07T12:32:42.557Z,15.2
2019-05-07T12:33:54.832Z,15.2
2019-05-07T12:35:07.068Z,16.5
2019-05-07T12:36:19.189Z,17.1
2019-05-07T12:37:31.407Z,13.2
2019-05-07T12:38:43.728Z,14.6
2019-05-07T12:39:55.685Z,15.6
2019-05-07T12:41:08.560Z,15.4
2019-05-07T12:42:20.129Z,14
2019-05-07T12:43:32.279Z,16.5
2019-05-07T12:44:44.495Z,14.2
2019-05-07T12:45:56.816Z,15.2
2019-05-07T12:47:08.958Z,14.4
2019-05-07T12:48:21.097Z,16.8
2019-05-07T12:49:33.641Z,17.7
2019-05-07T12:50:45.469Z,16.9
2019-05-07T12:51:57.808Z,15.1
2019-05-07T12:53:10.354Z,15.9
2019-05-07T12:54:22.371Z,12.3
2019-05-07T12:55:35.834Z,15.3
2019-05-07T12:56:46.496Z,14
2019-05-07T12:57:58.968Z,15.6
2019-05-07T12:59:11.047Z,14.3
2019-05-07T13:00:28.410Z,16.3
2019-05-07T13:01:35.316Z,14.7
2019-05-07T13:02:47.664Z,14.1
2019-05-07T13:03:59.817Z,13.2
2019-05-07T13:05:11.907Z,12.9
2019-05-07T13:06:24.061Z,11.4
2019-05-07T13:07:36.310Z,16.2
2019-05-07T13:08:48.481Z,15.1
2019-05-07T13:10:00.678Z,12.2
2019-05-07T13:11:12.972Z,14.3
2019-05-07T13:12:25.009Z,12.2
2019-05-07T13:13:37.254Z,14.6
2019-05-07T13:14:49.532Z,11.5
2019-05-07T13:16:01.714Z,14.6
2019-05-07T13:17:13.915Z,13.5
2019-05-07T13:18:25.940Z,13.9
2019-05-07T13:19:38.140Z,15.7
2019-05-07T13:20:50.377Z,15.3
2019-05-07T13:22:02.777Z,13.8
2019-05-07T13:23:14.815Z,18
2019-05-07T13:24:27.282Z,16.1
2019-05-07T13:25:43.140Z,12.7
2019-05-07T13:26:56.897Z,14.1
2019-05-07T13:28:03.997Z,13.1
2019-05-07T13:29:16.315Z,18
2019-05-07T13:30:28.799Z,12.7
2019-05-07T13:31:40.604Z,14.6
2019-05-07T13:32:52.454Z,14.8
2019-05-07T13:34:04.731Z,15
2019-05-07T13:35:16.768Z,12.7
2019-05-07T13:36:29.008Z,15.9
2019-05-07T13:37:41.154Z,13.9
2019-05-07T13:38:53.348Z,13.5
2019-05-07T13:40:05.611Z,16
2019-05-07T13:41:17.770Z,13.6
2019-05-07T13:42:29.824Z,15.1
2019-05-07T13:43:42.520Z,13.9
2019-05-07T13:44:54.264Z,14.1
2019-05-07T13:46:06.692Z,14.5
2019-05-07T13:47:18.705Z,15.1
2019-05-07T13:48:30.850Z,14.2
2019-05-07T13:49:43.103Z,11.4
2019-05-07T13:50:55.684Z,13.9
2019-05-07T13:52:07.559Z,14.9
2019-05-07T13:53:19.792Z,12.1
2019-05-07T13:54:31.803Z,13
2019-05-07T13:55:44.056Z,11.9
2019-05-07T13:56:56.285Z,13.1
2019-05-07T13:58:08.585Z,13.5
2019-05-07T13:59:20.665Z,14.1
2019-05-07T14:00:32.880Z,13.5
2019-05-07T14:01:45.199Z,14.1
2019-05-07T14:02:57.142Z,13.7
2019-05-07T14:04:09.409Z,13.3
2019-05-07T14:05:22.090Z,13.7
2019-05-07T14:06:33.752Z,12.7
2019-05-07T14:07:46.148Z,14.4
2019-05-07T14:08:58.131Z,13.9
2019-05-07T14:10:10.388Z,12.3
2019-05-07T14:11:22.658Z,11.3
2019-05-07T14:12:34.927Z,13.3
2019-05-07T14:13:47.482Z,10
2019-05-07T14:14:59.275Z,10.5
2019-05-07T14:16:11.399Z,11.4
2019-05-07T14:17:23.782Z,11.8
2019-05-07T14:18:35.791Z,12
2019-05-07T14:19:47.978Z,10.4
2019-05-07T14:21:00.149Z,12.3
2019-05-07T14:22:12.392Z,10.1
2019-05-07T14:23:24.751Z,10.2
2019-05-07T14:24:36.970Z,10.2
2019-05-07T14:25:50.407Z,11
2019-05-07T14:27:01.161Z,11.3
2019-05-07T14:28:13.350Z,10
2019-05-07T14:29:25.526Z,10.6
2019-05-07T14:30:37.753Z,11.6
2019-05-07T14:31:50.035Z,9
2019-05-07T14:33:02.260Z,10.5
2019-05-07T14:34:14.293Z,11.1
2019-05-07T14:35:26.512Z,11
2019-05-07T14:36:38.838Z,9.3
2019-05-07T14:37:50.911Z,9.7
2019-05-07T14:39:03.271Z,9.7
2019-05-07T14:40:15.443Z,9.9
2019-05-07T14:41:27.491Z,9.9
2019-05-07T14:42:39.657Z,11.8
2019-05-07T14:43:51.929Z,8.9
2019-05-07T14:45:03.995Z,10.1
2019-05-07T14:46:16.260Z,9
2019-05-07T14:47:28.481Z,9.6
2019-05-07T14:48:40.704Z,10
2019-05-07T14:49:53.255Z,9
2019-05-07T14:51:05.077Z,11.8
2019-05-07T14:52:17.381Z,10.1
2019-05-07T14:53:29.474Z,13.7
2019-05-07T14:54:41.554Z,10.4
2019-05-07T14:57:06.072Z,11.3
2019-05-07T14:58:18.351Z,9.7
2019-05-07T14:59:30.988Z,9.4
2019-05-07T15:00:42.679Z,11.7
2019-05-07T15:01:54.799Z,12
2019-05-07T15:03:07.023Z,10
2019-05-07T15:04:21.297Z,9.2
2019-05-07T15:05:31.404Z,9.7
2019-05-07T15:06:43.590Z,9
2019-05-07T15:07:55.712Z,9.3
2019-05-07T15:09:08.143Z,9.1
2019-05-07T15:10:20.169Z,12.5
2019-05-07T15:11:32.505Z,10.3
2019-05-07T15:12:44.845Z,10.6
2019-05-07T15:13:57.031Z,13
2019-05-07T15:15:08.834Z,9.8
2019-05-07T15:16:21.137Z,9.5
2019-05-07T15:17:33.313Z,10.6
2019-05-07T15:18:45.752Z,12.2
2019-05-07T15:19:57.710Z,11.3
2019-05-07T15:21:10.310Z,8.9
2019-05-07T15:22:22.066Z,10.1
2019-05-07T15:23:34.393Z,13.1
2019-05-07T15:24:46.610Z,10.7
2019-05-07T15:26:01.093Z,10.8
2019-05-07T15:27:15.051Z,12
2019-05-07T15:29:35.193Z,11
2019-05-07T15:30:47.337Z,10.4
2019-05-07T15:31:59.728Z,11.3
2019-05-07T15:33:11.907Z,12.4
2019-05-07T15:34:24.025Z,14
2019-05-07T15:35:36.216Z,12.5
2019-05-07T15:36:48.335Z,12.2
2019-05-07T15:38:00.830Z,10.8
2019-05-07T15:39:12.774Z,10
2019-05-07T15:40:25.078Z,10.6
2019-05-07T15:41:37.423Z,10.1
2019-05-07T15:42:49.308Z,10.9
2019-05-07T15:44:01.562Z,10.1
2019-05-07T15:45:13.686Z,9.3
2019-05-07T15:46:26.172Z,9.4
2019-05-07T15:47:38.247Z,8.7
2019-05-07T15:48:50.426Z,10.3
2019-05-07T15:50:02.583Z,9.5
2019-05-07T15:51:14.746Z,8.8
2019-05-07T15:52:26.907Z,10.6
2019-05-07T15:53:39.226Z,9.4
2019-05-07T15:54:51.457Z,8.8
2019-05-07T15:56:04.028Z,13
2019-05-07T15:57:15.992Z,7.5
2019-05-07T15:58:27.881Z,11.1
2019-05-07T15:59:40.256Z,8.1
2019-05-07T16:00:52.328Z,10.4
2019-05-07T16:02:04.492Z,8.6
2019-05-07T16:03:16.737Z,7.8
2019-05-07T16:04:28.852Z,7.9
2019-05-07T16:05:41.133Z,7.4
2019-05-07T16:06:53.175Z,8.6
2019-05-07T16:08:05.496Z,8.3
2019-05-07T16:09:17.578Z,6.9
2019-05-07T16:10:29.839Z,8.1
2019-05-07T16:11:42.162Z,9.2
2019-05-07T16:12:54.725Z,6.9
2019-05-07T16:14:06.461Z,6.3